Time;durP1;ratioP1;P1;durP2;ratioP2;P2;SDS_P1;SDS_P2;PMS_P1;PMS_P2;Temp;Humidity;BMP_temperature;BMP_pressure;BME280_temperature;BME280_humidity;BME280_pressure;Samples;Min_cycle;Max_cycle;Signal;HPM_P1;HPM_P2
2023/06/09 00:00:31;;;;;;;10.27;4.40;;;;;;;19.78;65.52;94978.34;4863101;29;20239;-76
2023/06/09 00:02:57;;;;;;;8.13;4.43;;;;;;;19.80;66.36;94981.53;4864399;29;20195;-76
2023/06/09 00:05:23;;;;;;;9.47;4.50;;;;;;;19.79;66.21;94979.16;4863981;29;20203;-75
2023/06/09 00:07:52;;;;;;;8.37;4.40;;;;;;;19.87;65.19;94976.03;4882401;29;20734;-76
2023/06/09 00:10:18;;;;;;;6.13;3.97;;;;;;;19.82;66.37;94979.41;4879925;29;20196;-76
2023/06/09 00:12:43;;;;;;;8.80;4.10;;;;;;;19.85;65.53;94978.91;4875873;29;20194;-75
2023/06/09 00:15:12;;;;;;;6.80;3.70;;;;;;;19.79;64.16;94977.28;4860338;29;20204;-76
2023/06/09 00:17:39;;;;;;;7.13;3.90;;;;;;;19.68;64.91;94988.88;4869284;29;20238;-76
2023/06/09 00:20:08;;;;;;;5.68;3.75;;;;;;;19.65;63.52;94985.94;4887470;29;20204;-76
2023/06/09 00:22:34;;;;;;;5.93;4.00;;;;;;;19.62;63.33;94989.09;4880566;29;20231;-76
2023/06/09 00:25:00;;;;;;;5.87;4.00;;;;;;;19.49;63.11;94987.66;4866507;29;20227;-76
2023/06/09 00:27:25;;;;;;;6.87;3.90;;;;;;;19.45;62.90;94981.25;4863375;29;20972;-76
2023/06/09 00:29:51;;;;;;;7.73;3.73;;;;;;;19.52;62.66;94984.50;4892165;29;20669;-76
2023/06/09 00:32:16;;;;;;;6.83;4.10;;;;;;;19.39;63.29;94985.72;4883535;29;20242;-76
2023/06/09 00:34:43;;;;;;;7.27;3.90;;;;;;;19.33;64.79;94977.94;4873407;29;20247;-75
2023/06/09 00:37:08;;;;;;;7.10;3.90;;;;;;;19.31;64.12;94980.84;4885889;29;20246;-75
2023/06/09 00:39:33;;;;;;;6.67;3.60;;;;;;;19.26;64.70;94980.81;4865859;29;20195;-76
2023/06/09 00:41:59;;;;;;;6.37;4.00;;;;;;;19.30;64.19;94975.78;4887547;29;20298;-76
2023/06/09 00:44:25;;;;;;;7.33;3.90;;;;;;;19.22;64.03;94978.91;4867350;29;20251;-76
2023/06/09 00:46:50;;;;;;;6.97;3.60;;;;;;;19.32;65.06;94973.69;4859731;29;20218;-76
2023/06/09 00:49:15;;;;;;;5.90;3.73;;;;;;;19.30;64.54;94973.13;4871052;29;20241;-76
2023/06/09 00:51:41;;;;;;;11.03;3.70;;;;;;;19.25;65.02;94976.53;4861022;29;20717;-76
2023/06/09 00:54:06;;;;;;;10.60;3.97;;;;;;;19.26;64.40;94975.50;4878843;29;20194;-76
2023/06/09 00:56:32;;;;;;;8.33;3.67;;;;;;;19.30;64.08;94971.28;4881546;29;20285;-75
2023/06/09 00:58:58;;;;;;;7.80;4.00;;;;;;;19.15;65.13;94968.50;4864649;29;20792;-75
2023/06/09 01:01:23;;;;;;;6.70;3.50;;;;;;;19.14;64.66;94977.50;4859596;29;20293;-71
2023/06/09 01:03:49;;;;;;;7.00;3.47;;;;;;;19.05;64.84;94970.25;4859882;29;20228;-71
2023/06/09 01:06:30;;;;;;;6.87;3.90;;;;;;;19.01;64.68;94974.47;4862077;29;20286;-72
2023/06/09 01:09:20;;;;;;;7.50;3.53;;;;;;;18.96;64.74;94974.41;4881203;29;20560;-71
2023/06/09 01:12:06;;;;;;;6.63;3.50;;;;;;;18.87;64.53;94966.06;4868446;29;20219;-71
2023/06/09 01:14:39;;;;;;;6.43;3.33;;;;;;;18.78;65.13;94968.38;4881809;29;20199;-69
2023/06/09 01:17:13;;;;;;;7.50;3.50;;;;;;;18.78;65.08;94963.06;4880099;29;20298;-71
2023/06/09 01:19:57;;;;;;;8.07;3.50;;;;;;;18.66;66.15;94967.72;4866539;29;20230;-71
2023/06/09 01:22:26;;;;;;;7.90;3.50;;;;;;;18.69;66.51;94967.22;4849120;29;20486;-70
2023/06/09 01:25:04;;;;;;;8.43;3.23;;;;;;;18.74;65.50;94967.28;4877355;29;20690;-71
2023/06/09 01:27:30;;;;;;;8.13;3.33;;;;;;;18.70;66.57;94970.69;4849067;29;20222;-71
2023/06/09 01:29:56;;;;;;;5.87;3.33;;;;;;;18.73;66.07;94973.63;4866804;29;20199;-71
2023/06/09 01:32:22;;;;;;;7.57;3.60;;;;;;;18.71;65.62;94973.06;4866085;29;20213;-71
2023/06/09 01:34:47;;;;;;;7.57;3.30;;;;;;;18.51;66.37;94975.47;4851413;29;20224;-71
2023/06/09 01:37:13;;;;;;;6.23;3.50;;;;;;;18.46;66.74;94975.41;4851656;29;20231;-71
2023/06/09 01:39:39;;;;;;;6.27;3.20;;;;;;;18.41;67.13;94983.31;4866761;29;20191;-71
2023/06/09 01:42:06;;;;;;;7.03;3.40;;;;;;;18.42;67.05;94984.06;4869616;29;20207;-71
2023/06/09 01:44:35;;;;;;;7.93;3.40;;;;;;;18.43;67.13;94983.84;4882161;29;20310;-71
2023/06/09 01:47:01;;;;;;;5.40;3.40;;;;;;;18.50;67.15;94989.78;4856039;29;20259;-71
2023/06/09 01:49:47;;;;;;;5.10;3.37;;;;;;;18.52;67.11;94978.94;4880710;29;20224;-70
2023/06/09 01:52:18;;;;;;;6.20;3.10;;;;;;;18.48;67.28;94980.50;4881197;29;20912;-71
2023/06/09 01:54:52;;;;;;;8.70;3.43;;;;;;;18.46;67.42;94983.38;4864737;29;20662;-71
2023/06/09 01:57:31;;;;;;;8.70;3.33;;;;;;;18.39;67.65;94988.00;4851358;29;20824;-71
2023/06/09 02:00:03;;;;;;;6.33;3.40;;;;;;;18.35;67.43;94976.31;4881436;29;20199;-71
2023/06/09 02:02:30;;;;;;;6.70;3.47;;;;;;;18.20;68.51;94980.63;4862787;29;20231;-70
2023/06/09 02:04:56;;;;;;;6.83;3.50;;;;;;;18.12;68.89;94979.19;4866882;29;20319;-71
2023/06/09 02:07:21;;;;;;;6.60;3.67;;;;;;;18.24;68.40;94979.09;4863879;29;20238;-72
2023/06/09 02:09:47;;;;;;;5.07;3.53;;;;;;;18.29;67.79;94979.16;4861172;29;20203;-71
2023/06/09 02:12:12;;;;;;;7.07;3.40;;;;;;;18.31;68.31;94985.00;4864161;29;20321;-70
2023/06/09 02:14:39;;;;;;;6.13;3.60;;;;;;;18.05;69.12;94981.22;4863408;29;20215;-70
2023/06/09 02:17:05;;;;;;;8.20;3.57;;;;;;;18.19;68.86;94979.81;4870963;29;20230;-71
2023/06/09 02:19:37;;;;;;;5.40;3.57;;;;;;;18.22;68.64;94981.19;4874349;29;20254;-75
2023/06/09 02:22:04;;;;;;;6.63;3.57;;;;;;;18.32;67.80;94984.75;4868139;29;20306;-76
2023/06/09 02:24:30;;;;;;;8.30;3.70;;;;;;;18.24;68.20;94981.72;4880295;29;20224;-75
2023/06/09 02:26:56;;;;;;;7.30;4.00;;;;;;;18.17;68.77;94973.97;4866072;29;20223;-75
2023/06/09 02:29:26;;;;;;;7.87;4.00;;;;;;;18.13;68.62;94981.59;4874022;29;20278;-75
2023/06/09 02:31:53;;;;;;;6.20;3.70;;;;;;;18.16;68.34;94986.41;4862887;29;20265;-76
2023/06/09 02:34:19;;;;;;;9.00;3.90;;;;;;;18.20;68.99;94986.72;4880966;29;20690;-75
2023/06/09 02:36:45;;;;;;;9.43;4.40;;;;;;;18.18;68.89;94984.31;4866145;29;20222;-76
2023/06/09 02:39:11;;;;;;;8.00;4.40;;;;;;;18.23;67.95;94990.72;4868455;29;20191;-75
2023/06/09 02:41:36;;;;;;;6.70;3.90;;;;;;;18.20;68.68;94985.94;4882261;29;20211;-75
2023/06/09 02:44:02;;;;;;;8.40;4.00;;;;;;;18.10;68.92;94997.19;4864392;29;20336;-75
2023/06/09 02:46:29;;;;;;;8.77;3.80;;;;;;;18.14;68.26;94993.00;4880297;29;20226;-75
2023/06/09 02:48:55;;;;;;;6.90;3.70;;;;;;;18.07;68.58;94992.38;4879961;29;20192;-75
2023/06/09 02:51:20;;;;;;;7.67;4.03;;;;;;;18.02;68.93;94985.16;4865862;29;20584;-75
2023/06/09 02:53:46;;;;;;;8.37;4.10;;;;;;;17.99;69.20;94980.34;4881231;29;20202;-75
2023/06/09 02:56:11;;;;;;;9.87;4.10;;;;;;;17.94;69.36;94979.44;4852195;29;20226;-75
2023/06/09 02:58:37;;;;;;;9.40;4.23;;;;;;;17.93;69.05;94989.28;4879632;29;20191;-75
2023/06/09 03:01:02;;;;;;;8.37;4.13;;;;;;;17.88;69.43;94980.44;4856750;29;20226;-75
2023/06/09 03:03:30;;;;;;;6.50;4.20;;;;;;;17.78;70.21;94982.94;4866221;29;20188;-75
2023/06/09 03:05:58;;;;;;;8.00;4.23;;;;;;;17.91;69.46;94983.38;4867543;29;20291;-75
2023/06/09 03:08:23;;;;;;;9.30;4.30;;;;;;;17.73;69.91;94982.84;4870973;29;20771;-76
2023/06/09 03:10:49;;;;;;;11.23;4.40;;;;;;;17.71;70.83;94983.09;4866962;29;20287;-76
2023/06/09 03:13:15;;;;;;;7.73;4.30;;;;;;;17.65;70.67;94978.75;4866166;29;20195;-75
2023/06/09 03:15:40;;;;;;;9.30;4.30;;;;;;;17.34;71.95;94977.44;4883481;29;20223;-75
2023/06/09 03:18:07;;;;;;;11.77;4.87;;;;;;;17.20;72.61;94970.88;4889006;29;20198;-75
2023/06/09 03:20:34;;;;;;;10.33;4.57;;;;;;;17.08;73.24;94967.47;4864153;29;20200;-75
2023/06/09 03:22:59;;;;;;;9.83;4.77;;;;;;;17.05;74.48;94964.53;4878316;29;20244;-75
2023/06/09 03:25:25;;;;;;;9.27;4.67;;;;;;;17.25;74.46;94967.50;4861158;29;20297;-75
2023/06/09 03:27:52;;;;;;;10.30;4.87;;;;;;;17.29;74.22;94974.72;4865206;29;20202;-73
2023/06/09 03:30:17;;;;;;;12.13;4.80;;;;;;;17.24;74.91;94971.97;4880509;29;20208;-75
2023/06/09 03:32:42;;;;;;;9.33;4.87;;;;;;;17.07;75.99;94970.38;4883133;29;20567;-75
2023/06/09 03:35:08;;;;;;;9.43;4.90;;;;;;;17.06;76.21;94966.91;4863978;29;20194;-75
2023/06/09 03:37:34;;;;;;;9.43;5.20;;;;;;;17.17;76.39;94966.03;4864957;29;20294;-76
2023/06/09 03:39:59;;;;;;;9.43;5.40;;;;;;;17.06;76.32;94972.19;4877851;29;20207;-76
2023/06/09 03:42:25;;;;;;;12.67;5.70;;;;;;;17.05;77.61;94967.94;4881716;29;20207;-75
2023/06/09 03:44:57;;;;;;;12.00;5.50;;;;;;;17.13;77.21;94969.41;4857643;29;20238;-76
2023/06/09 03:47:23;;;;;;;11.37;5.30;;;;;;;16.75;77.99;94968.22;4881824;29;20300;-75
2023/06/09 03:49:48;;;;;;;9.40;4.67;;;;;;;16.92;78.01;94973.53;4851214;29;20282;-75
2023/06/09 03:52:14;;;;;;;11.17;4.77;;;;;;;17.09;77.52;94968.28;4850608;29;20226;-75
2023/06/09 03:54:39;;;;;;;9.97;4.50;;;;;;;17.16;77.60;94980.31;4870158;29;20210;-75
2023/06/09 03:57:05;;;;;;;8.93;4.90;;;;;;;16.81;78.47;94980.47;4872216;29;20227;-75
2023/06/09 03:59:31;;;;;;;7.10;4.70;;;;;;;16.79;79.35;94976.47;4851005;29;20654;-75
2023/06/09 04:01:56;;;;;;;10.27;4.60;;;;;;;16.72;79.38;94989.81;4840960;29;20259;-75
2023/06/09 04:04:22;;;;;;;11.63;4.97;;;;;;;16.94;78.56;94986.50;4873780;29;20239;-75
2023/06/09 04:06:47;;;;;;;8.13;4.40;;;;;;;17.13;77.31;94990.56;4837918;29;20219;-75
2023/06/09 04:09:13;;;;;;;7.40;4.57;;;;;;;17.05;79.12;94988.31;4832010;29;20203;-74
2023/06/09 04:11:39;;;;;;;11.40;4.90;;;;;;;16.96;78.90;94984.44;4838270;29;20207;-75
2023/06/09 04:14:05;;;;;;;8.97;4.60;;;;;;;17.22;77.62;94984.66;4856011;29;20194;-77
2023/06/09 04:16:31;;;;;;;10.50;4.60;;;;;;;17.34;78.13;94993.31;4849787;29;20234;-76
2023/06/09 04:18:56;;;;;;;8.67;4.57;;;;;;;17.38;76.93;94994.47;4849613;29;20225;-75
2023/06/09 04:21:22;;;;;;;11.00;4.23;;;;;;;17.28;77.42;94996.94;4842268;29;20253;-76
2023/06/09 04:23:47;;;;;;;10.40;4.20;;;;;;;17.32;77.47;94997.25;4837874;29;20748;-77
2023/06/09 04:26:13;;;;;;;8.53;4.23;;;;;;;17.44;77.69;94997.97;4862729;29;20217;-76
2023/06/09 04:28:40;;;;;;;9.10;4.43;;;;;;;17.21;78.01;95001.56;4852359;29;20187;-77
2023/06/09 04:31:07;;;;;;;7.83;4.00;;;;;;;17.29;76.47;95000.38;4837593;29;20212;-76
2023/06/09 04:33:35;;;;;;;8.47;4.30;;;;;;;17.18;77.98;95003.88;4865908;29;20194;-76
2023/06/09 04:36:04;;;;;;;7.50;3.90;;;;;;;17.49;73.09;95006.00;4864216;29;20227;-76
2023/06/09 04:38:33;;;;;;;10.50;4.23;;;;;;;17.86;70.62;95001.06;4851144;29;20196;-76
2023/06/09 04:41:03;;;;;;;7.07;3.83;;;;;;;17.91;70.86;95003.78;4872881;29;20233;-76
2023/06/09 04:43:29;;;;;;;13.97;7.23;;;;;;;17.90;71.71;95005.63;4846160;29;20239;-76
2023/06/09 04:45:56;;;;;;;8.23;4.40;;;;;;;17.94;73.41;95011.22;4866339;29;20299;-76
2023/06/09 04:48:21;;;;;;;9.80;4.00;;;;;;;17.79;74.42;95005.72;4878594;29;20259;-76
2023/06/09 04:50:47;;;;;;;24.13;4.93;;;;;;;17.95;73.35;95005.72;4857598;29;20321;-76
2023/06/09 04:53:15;;;;;;;13.27;4.33;;;;;;;17.99;73.84;94996.22;4877809;29;20579;-76
2023/06/09 04:55:41;;;;;;;16.70;4.70;;;;;;;18.15;72.66;95008.63;4873819;29;20222;-77
2023/06/09 04:58:07;;;;;;;15.13;4.30;;;;;;;18.52;70.22;95008.09;4865068;29;20253;-76
2023/06/09 05:00:33;;;;;;;12.07;4.40;;;;;;;18.71;69.65;95007.56;4874331;29;20199;-76
2023/06/09 05:02:59;;;;;;;13.63;5.23;;;;;;;18.68;70.09;95010.69;4864934;29;20195;-77
2023/06/09 05:05:25;;;;;;;8.13;4.27;;;;;;;18.69;68.83;95012.31;4880024;29;20196;-76
2023/06/09 05:07:51;;;;;;;10.63;4.40;;;;;;;20.34;63.51;95021.25;4872444;29;20200;-76
2023/06/09 05:10:16;;;;;;;9.20;4.20;;;;;;;19.16;66.74;95022.34;4864968;29;20214;-76
2023/06/09 05:12:42;;;;;;;11.90;4.33;;;;;;;18.63;69.76;95009.81;4878514;29;20247;-76
2023/06/09 05:15:08;;;;;;;10.50;4.83;;;;;;;18.91;70.07;95011.47;4867115;29;20576;-76
2023/06/09 05:17:34;;;;;;;8.70;4.40;;;;;;;19.20;67.84;95010.97;4860560;29;20776;-76
2023/06/09 05:20:00;;;;;;;9.87;4.30;;;;;;;19.37;65.87;95006.41;4859671;29;20302;-76
2023/06/09 05:22:26;;;;;;;7.77;3.97;;;;;;;20.88;60.46;95005.78;4883368;29;20270;-75
2023/06/09 05:24:51;;;;;;;8.63;3.80;;;;;;;20.63;59.03;95009.97;4885110;29;20219;-76
2023/06/09 05:27:17;;;;;;;7.33;4.20;;;;;;;20.08;60.94;95007.75;4871419;29;20223;-71
2023/06/09 05:29:43;;;;;;;8.67;4.07;;;;;;;19.67;64.52;95007.72;4867147;29;20302;-72
2023/06/09 05:32:09;;;;;;;7.73;4.20;;;;;;;19.65;63.89;95007.19;4868038;29;20218;-73
2023/06/09 05:34:35;;;;;;;8.87;4.40;;;;;;;19.78;63.77;95006.75;4871821;29;20196;-72
2023/06/09 05:37:02;;;;;;;8.87;4.30;;;;;;;19.68;65.24;95004.03;4855665;29;20224;-71
2023/06/09 05:39:27;;;;;;;7.00;4.23;;;;;;;19.72;64.51;95002.47;4859595;29;20665;-71
2023/06/09 05:41:56;;;;;;;10.47;4.50;;;;;;;19.69;65.07;94998.47;4864735;29;20227;-71
2023/06/09 05:44:22;;;;;;;6.13;4.20;;;;;;;19.54;66.95;94998.31;4867689;29;20251;-70
2023/06/09 05:46:47;;;;;;;8.27;4.18;;;;;;;19.44;68.36;94992.91;4867727;29;20267;-71
2023/06/09 05:49:13;;;;;;;11.60;4.53;;;;;;;19.51;66.71;94996.19;4856072;29;20195;-70
2023/06/09 05:51:39;;;;;;;6.37;4.50;;;;;;;19.74;66.64;94997.69;4863279;29;20903;-71
2023/06/09 05:54:06;;;;;;;10.33;4.40;;;;;;;19.79;65.31;94995.88;4860193;29;20199;-71
2023/06/09 05:56:32;;;;;;;8.13;4.33;;;;;;;19.81;64.56;94993.78;4853756;29;20231;-71
2023/06/09 05:59:02;;;;;;;7.10;4.37;;;;;;;19.86;62.81;94991.16;4860354;29;20205;-70
2023/06/09 06:01:30;;;;;;;7.47;4.40;;;;;;;19.80;65.17;94991.38;4857837;29;20222;-70
2023/06/09 06:03:55;;;;;;;11.63;4.40;;;;;;;19.80;65.26;94986.84;4869976;29;20188;-70
2023/06/09 06:06:21;;;;;;;8.80;4.10;;;;;;;19.62;67.17;94989.91;4864834;29;20726;-70
2023/06/09 06:08:46;;;;;;;11.97;4.47;;;;;;;19.70;66.77;94978.03;4880548;29;20458;-71
2023/06/09 06:11:12;;;;;;;8.67;4.40;;;;;;;19.79;65.96;94979.16;4866880;29;20251;-71
2023/06/09 06:13:38;;;;;;;8.53;4.70;;;;;;;19.85;65.51;94984.22;4881263;29;20203;-71
2023/06/09 06:16:03;;;;;;;10.57;4.60;;;;;;;19.74;67.29;94989.72;4868704;29;20222;-70
2023/06/09 06:18:29;;;;;;;11.40;4.80;;;;;;;19.79;66.19;94979.94;4864958;29;20940;-70
2023/06/09 06:20:55;;;;;;;11.60;4.63;;;;;;;19.88;67.10;94981.06;4873130;29;20278;-70
2023/06/09 06:23:21;;;;;;;11.47;4.70;;;;;;;20.08;64.86;94983.06;4850362;29;20745;-70
2023/06/09 06:25:47;;;;;;;7.57;4.20;;;;;;;20.10;65.62;94980.94;4862294;29;20223;-70
2023/06/09 06:28:13;;;;;;;9.50;4.10;;;;;;;20.04;65.95;94981.97;4864104;29;20199;-70
2023/06/09 06:30:38;;;;;;;8.37;4.40;;;;;;;20.14;66.38;94980.19;4848684;29;20698;-70
2023/06/09 06:33:05;;;;;;;6.80;4.17;;;;;;;20.23;65.89;94985.03;4851429;29;20212;-70
2023/06/09 06:35:31;;;;;;;10.77;4.30;;;;;;;20.30;63.10;94973.09;4873166;29;20206;-69
2023/06/09 06:37:56;;;;;;;10.77;4.30;;;;;;;20.30;63.91;94980.31;4873765;29;20228;-71
2023/06/09 06:40:22;;;;;;;9.77;4.30;;;;;;;20.29;64.23;94976.03;4865844;29;20202;-70
2023/06/09 06:42:49;;;;;;;13.40;4.50;;;;;;;20.09;65.60;94979.34;4865621;29;20260;-70
2023/06/09 06:45:15;;;;;;;9.10;4.30;;;;;;;20.06;64.77;94975.31;4851653;29;20210;-71
2023/06/09 06:47:41;;;;;;;8.87;4.60;;;;;;;20.27;62.95;94976.28;4849796;29;20223;-71
2023/06/09 06:50:08;;;;;;;6.17;4.00;;;;;;;20.36;63.84;94974.75;4858026;29;20749;-70
2023/06/09 06:52:34;;;;;;;8.47;4.23;;;;;;;20.38;64.91;94980.59;4865444;29;20692;-70
2023/06/09 06:54:59;;;;;;;10.37;4.50;;;;;;;20.25;64.28;94970.44;4854387;29;20199;-70
2023/06/09 06:57:25;;;;;;;10.17;4.73;;;;;;;20.37;62.66;94968.34;4857884;29;20918;-70
2023/06/09 06:59:51;;;;;;;9.07;4.60;;;;;;;20.49;62.92;94979.56;4855669;29;20199;-71
2023/06/09 07:02:17;;;;;;;9.23;4.83;;;;;;;20.50;63.20;94977.72;4865227;29;20239;-71
2023/06/09 07:04:42;;;;;;;9.07;4.10;;;;;;;20.49;62.44;94968.94;4865746;29;20191;-71
2023/06/09 07:07:09;;;;;;;8.00;4.40;;;;;;;20.63;62.48;94972.75;4853742;29;20230;-72
2023/06/09 07:09:35;;;;;;;9.83;4.40;;;;;;;20.68;62.44;94970.06;4857970;29;20199;-71
2023/06/09 07:12:01;;;;;;;9.73;4.70;;;;;;;20.83;62.59;94969.34;4872536;29;20251;-69
2023/06/09 07:14:28;;;;;;;13.37;4.80;;;;;;;20.86;62.02;94968.81;4857812;29;20225;-70
2023/06/09 07:16:53;;;;;;;11.03;4.73;;;;;;;21.01;61.41;94958.22;4864808;29;20974;-70
2023/06/09 07:19:19;;;;;;;9.97;4.27;;;;;;;21.08;63.34;94961.47;4856894;29;20195;-69
2023/06/09 07:21:44;;;;;;;9.40;4.33;;;;;;;21.12;63.84;94961.72;4865141;29;20218;-69
2023/06/09 07:24:10;;;;;;;9.73;4.50;;;;;;;21.12;61.42;94959.84;4867062;29;20202;-70
2023/06/09 07:26:36;;;;;;;9.80;4.87;;;;;;;21.20;61.26;94970.00;4881279;29;20306;-70
2023/06/09 07:29:01;;;;;;;13.17;4.83;;;;;;;21.18;60.27;94966.00;4851241;29;20196;-71
2023/06/09 07:31:27;;;;;;;6.55;4.60;;;;;;;21.24;60.31;94964.94;4877495;29;20230;-70
2023/06/09 07:33:52;;;;;;;8.30;4.20;;;;;;;21.31;62.39;94960.16;4876911;29;20700;-71
2023/06/09 07:36:19;;;;;;;10.10;4.90;;;;;;;21.39;60.96;94963.09;4867814;29;20223;-71
2023/06/09 07:38:46;;;;;;;9.80;4.70;;;;;;;21.46;61.07;94963.63;4863607;29;20192;-71
2023/06/09 07:41:12;;;;;;;10.88;4.85;;;;;;;21.61;60.77;94954.84;4872917;29;20709;-70
2023/06/09 07:43:38;;;;;;;11.30;5.17;;;;;;;21.71;60.87;94954.06;4848150;29;20259;-71
2023/06/09 07:46:03;;;;;;;14.17;5.80;;;;;;;21.76;60.43;94956.69;4866464;29;20235;-72
2023/06/09 07:48:29;;;;;;;14.80;7.10;;;;;;;21.91;60.24;94954.03;4862443;29;20677;-71
2023/06/09 07:50:56;;;;;;;7.03;4.88;;;;;;;21.90;59.87;94947.91;4852406;29;20370;-71
2023/06/09 07:53:22;;;;;;;10.82;5.05;;;;;;;22.00;61.21;94955.09;4866532;29;20695;-70
2023/06/09 07:55:48;;;;;;;9.48;4.78;;;;;;;22.08;60.64;94958.03;4855397;29;20226;-70
2023/06/09 07:58:14;;;;;;;8.70;4.80;;;;;;;22.25;59.22;94955.06;4859140;29;20234;-70
2023/06/09 08:00:40;;;;;;;12.13;4.60;;;;;;;22.31;59.86;94958.47;4865208;29;20238;-70
2023/06/09 08:03:05;;;;;;;7.37;4.90;;;;;;;22.34;59.05;94956.09;4857811;29;20204;-70
2023/06/09 08:05:31;;;;;;;9.02;4.57;;;;;;;22.41;58.52;94947.78;4852535;29;20191;-69
2023/06/09 08:08:00;;;;;;;10.27;4.87;;;;;;;22.34;59.38;94945.41;4852681;29;20215;-69
2023/06/09 08:10:25;;;;;;;9.70;5.20;;;;;;;22.41;59.59;94942.44;4866138;29;20216;-70
2023/06/09 08:12:51;;;;;;;11.05;5.35;;;;;;;22.51;58.01;94950.41;4857922;29;20246;-69
2023/06/09 08:15:16;;;;;;;10.68;4.82;;;;;;;22.64;58.14;94949.88;4866120;29;20202;-70
2023/06/09 08:17:42;;;;;;;7.15;4.38;;;;;;;22.74;59.16;94947.16;4867543;29;20220;-70
2023/06/09 08:20:08;;;;;;;12.98;4.85;;;;;;;22.81;58.85;94946.88;4864041;29;21034;-70
2023/06/09 08:22:34;;;;;;;7.22;4.40;;;;;;;23.02;57.90;94940.34;4879134;29;20355;-70
2023/06/09 08:25:00;;;;;;;10.13;4.75;;;;;;;23.12;57.06;94937.63;4865900;29;20312;-71
2023/06/09 08:27:26;;;;;;;12.30;4.82;;;;;;;23.09;57.54;94932.81;4872473;29;20235;-71
2023/06/09 08:29:51;;;;;;;10.77;4.60;;;;;;;23.07;57.07;94932.31;4872220;29;20306;-70
2023/06/09 08:32:17;;;;;;;7.28;4.63;;;;;;;23.10;57.54;94937.88;4865783;29;20247;-71
2023/06/09 08:34:43;;;;;;;8.15;4.43;;;;;;;23.05;57.56;94932.56;4879792;29;20203;-70
2023/06/09 08:37:09;;;;;;;11.05;4.57;;;;;;;23.16;57.40;94934.09;4868583;29;20620;-72
2023/06/09 08:39:35;;;;;;;11.60;4.97;;;;;;;23.36;56.59;94939.31;4853769;29;20192;-71
2023/06/09 08:42:01;;;;;;;5.93;4.60;;;;;;;23.49;57.36;94937.91;4855901;29;21170;-70
2023/06/09 08:44:27;;;;;;;8.75;4.55;;;;;;;23.45;57.11;94931.53;4860481;29;20330;-71
2023/06/09 08:46:52;;;;;;;11.23;4.95;;;;;;;23.60;57.62;94933.25;4868061;29;20700;-71
2023/06/09 08:49:18;;;;;;;9.20;4.72;;;;;;;23.75;55.49;94933.94;4856597;29;20203;-71
2023/06/09 08:51:45;;;;;;;8.93;4.50;;;;;;;23.83;55.15;94928.00;4855463;29;20208;-71
2023/06/09 08:54:13;;;;;;;6.20;4.45;;;;;;;23.86;55.91;94923.97;4868605;29;20618;-70
2023/06/09 08:56:40;;;;;;;14.38;4.78;;;;;;;23.90;56.26;94916.97;4853245;29;20215;-72
2023/06/09 08:59:05;;;;;;;9.00;4.75;;;;;;;24.03;54.38;94921.63;4868099;29;20203;-71
2023/06/09 09:01:31;;;;;;;7.40;4.65;;;;;;;24.10;53.74;94917.56;4887736;29;20216;-71
2023/06/09 09:03:57;;;;;;;10.65;5.00;;;;;;;24.09;55.62;94923.22;4851841;29;20214;-72
2023/06/09 09:06:23;;;;;;;11.40;4.68;;;;;;;24.08;53.98;94919.75;4866055;29;20212;-72
2023/06/09 09:08:48;;;;;;;9.50;4.90;;;;;;;24.12;54.58;94922.66;4852999;29;20287;-72
2023/06/09 09:11:14;;;;;;;10.38;5.13;;;;;;;24.17;54.12;94916.47;4877027;29;20215;-71
2023/06/09 09:13:40;;;;;;;7.60;4.82;;;;;;;24.23;52.49;94917.97;4865908;29;20202;-71
2023/06/09 09:16:08;;;;;;;8.52;4.97;;;;;;;24.28;53.71;94918.72;4858531;29;20207;-72
2023/06/09 09:18:34;;;;;;;11.32;4.82;;;;;;;24.38;52.92;94913.28;4851632;29;20214;-73
2023/06/09 09:21:00;;;;;;;10.43;4.78;;;;;;;24.35;53.23;94902.31;4855892;29;20223;-72
2023/06/09 09:23:32;;;;;;;9.82;4.80;;;;;;;24.47;52.93;94900.03;4860502;29;20737;-71
2023/06/09 09:26:03;;;;;;;8.73;4.68;;;;;;;24.73;54.57;94895.97;4866028;29;20268;-72
2023/06/09 09:28:41;;;;;;;10.45;5.05;;;;;;;24.84;53.09;94889.41;4873132;29;20218;-72
2023/06/09 09:31:08;;;;;;;11.05;4.93;;;;;;;24.97;52.83;94887.91;4881907;29;20214;-72
2023/06/09 09:33:35;;;;;;;8.63;4.95;;;;;;;24.99;53.08;94885.72;4868857;29;20282;-72
2023/06/09 09:36:01;;;;;;;10.77;5.00;;;;;;;25.04;51.35;94885.66;4860937;29;20220;-72
2023/06/09 09:38:27;;;;;;;11.45;4.85;;;;;;;25.19;50.52;94882.75;4862084;29;20619;-71
2023/06/09 09:40:59;;;;;;;6.97;4.55;;;;;;;25.29;50.81;94888.72;4862434;29;20219;-71
2023/06/09 09:43:25;;;;;;;12.27;5.00;;;;;;;25.33;51.80;94875.56;4880271;29;20364;-70
2023/06/09 09:45:52;;;;;;;8.20;4.88;;;;;;;25.41;49.58;94881.03;4854886;29;20244;-70
2023/06/09 09:48:19;;;;;;;11.88;5.00;;;;;;;25.50;50.97;94885.78;4859521;29;20756;-71
2023/06/09 09:50:46;;;;;;;7.00;4.80;;;;;;;25.46;49.18;94882.09;4864938;29;20223;-69
2023/06/09 09:53:12;;;;;;;7.75;4.60;;;;;;;25.60;49.53;94880.25;4874723;29;20691;-71
2023/06/09 09:55:38;;;;;;;7.07;4.63;;;;;;;25.62;49.45;94880.75;4853206;29;20261;-70
2023/06/09 09:58:06;;;;;;;8.18;4.95;;;;;;;25.68;48.95;94876.88;4868828;29;20226;-71
2023/06/09 10:00:36;;;;;;;10.02;5.00;;;;;;;25.65;50.41;94874.81;4880503;29;20227;-71
2023/06/09 10:03:14;;;;;;;9.00;4.65;;;;;;;25.63;50.35;94869.72;4865966;29;20197;-72
2023/06/09 10:05:42;;;;;;;7.55;4.80;;;;;;;25.82;50.71;94869.66;4852731;29;20227;-70
2023/06/09 10:08:09;;;;;;;9.20;4.90;;;;;;;25.98;48.94;94863.69;4867124;29;20203;-72
2023/06/09 10:10:35;;;;;;;8.18;4.95;;;;;;;25.89;47.60;94860.13;4870251;29;20195;-72
2023/06/09 10:13:03;;;;;;;8.93;4.88;;;;;;;26.02;49.13;94858.56;4883210;29;20191;-72
2023/06/09 10:15:28;;;;;;;10.80;5.10;;;;;;;26.14;48.02;94864.25;4866968;29;20203;-72
2023/06/09 10:17:54;;;;;;;6.65;4.70;;;;;;;26.10;47.08;94863.25;4868147;29;20226;-72
2023/06/09 10:20:20;;;;;;;7.65;4.95;;;;;;;26.08;46.87;94855.47;4849482;29;21238;-70
2023/06/09 10:22:46;;;;;;;9.48;5.18;;;;;;;26.17;47.87;94855.63;4867408;29;20262;-71
2023/06/09 10:25:12;;;;;;;8.57;4.90;;;;;;;26.23;47.48;94853.59;4868604;29;20707;-71
2023/06/09 10:27:38;;;;;;;14.40;4.80;;;;;;;26.29;48.68;94850.56;4879230;29;20741;-72
2023/06/09 10:30:05;;;;;;;7.90;4.97;;;;;;;26.28;47.28;94856.19;4887924;29;20191;-71
2023/06/09 10:32:31;;;;;;;9.07;4.60;;;;;;;26.26;46.53;94853.81;4855251;29;20679;-71
2023/06/09 10:34:56;;;;;;;9.30;4.57;;;;;;;26.29;45.60;94850.56;4873246;29;20199;-72
2023/06/09 10:37:32;;;;;;;8.98;4.45;;;;;;;26.27;45.06;94843.88;4851344;29;20304;-71
2023/06/09 10:40:10;;;;;;;12.32;4.68;;;;;;;26.28;45.82;94846.25;4862863;29;20194;-72
2023/06/09 10:42:45;;;;;;;6.80;4.50;;;;;;;26.53;47.38;94851.09;4880585;29;20215;-71
2023/06/09 10:45:14;;;;;;;12.75;4.65;;;;;;;26.48;45.95;94847.75;4864531;29;20202;-72
2023/06/09 10:47:43;;;;;;;8.23;4.10;;;;;;;26.41;45.55;94845.47;4848923;29;20303;-70
2023/06/09 10:50:23;;;;;;;11.52;4.50;;;;;;;26.44;46.68;94847.53;4857738;29;20196;-73
2023/06/09 10:52:49;;;;;;;7.88;4.35;;;;;;;26.54;46.41;94839.28;4861548;29;20199;-71
2023/06/09 10:55:15;;;;;;;5.93;4.22;;;;;;;26.68;45.92;94836.53;4852000;29;20199;-71
2023/06/09 10:57:41;;;;;;;8.68;4.80;;;;;;;26.87;44.87;94842.59;4852347;29;20277;-71
2023/06/09 11:00:11;;;;;;;7.82;4.50;;;;;;;26.85;43.85;94835.94;4865055;29;20206;-71
2023/06/09 11:02:41;;;;;;;7.30;5.03;;;;;;;26.78;44.32;94836.38;4836897;29;20212;-71
2023/06/09 11:05:07;;;;;;;13.80;5.93;;;;;;;26.57;44.00;94836.00;4853641;29;20222;-74
2023/06/09 11:07:43;;;;;;;10.05;5.40;;;;;;;26.61;44.24;94826.22;4850758;29;20211;-72
2023/06/09 11:10:11;;;;;;;8.35;4.88;;;;;;;26.73;44.52;94821.13;4850251;29;20214;-73
2023/06/09 11:12:36;;;;;;;10.13;5.22;;;;;;;26.84;45.48;94819.06;4879956;29;20218;-71
2023/06/09 11:15:02;;;;;;;12.52;5.22;;;;;;;26.94;44.65;94824.16;4862759;29;20602;-72
2023/06/09 11:17:43;;;;;;;9.05;4.93;;;;;;;27.04;43.88;94815.06;4865743;29;21084;-72
2023/06/09 11:20:09;;;;;;;10.23;4.90;;;;;;;27.11;45.88;94815.44;4884388;29;20202;-72
2023/06/09 11:22:40;;;;;;;9.88;4.68;;;;;;;26.72;44.98;94818.75;4879375;29;20215;-72
2023/06/09 11:25:06;;;;;;;8.10;4.50;;;;;;;26.70;46.56;94819.03;4880090;29;20262;-72
2023/06/09 11:27:32;;;;;;;9.90;4.70;;;;;;;26.59;44.96;94812.31;4851268;29;20903;-72
2023/06/09 11:30:08;;;;;;;12.20;4.88;;;;;;;26.21;46.86;94815.53;4841625;29;20272;-71